Latest Weather Observations for Sydney - Observatory Hill

IDN60901

Issued at 7:01 pm EDT Monday 23 October 2017 (issued every 10 minutes, with the page automatically refreshed every 10 minutes)

About weather observations | Map of Sydney area stations | Latest observations for Sydney area | Other Formats
Station Details ID: 066062 Name: SYDNEY (OBSERVATORY HILL) Lat: -33.86 Lon: 151.21 Height: 39.0 m
Data from the previous 72 hours. | See also: Recent months at Sydney - Observatory Hill

* Apparent temperature (App Temp) for Sydney - Observatory Hill is calculated using temperature observations collected at Sydney - Observatory Hill and wind observations collected at Fort Denison, as wind observations are not currently provided for Sydney - Observatory Hill.

Date/Time
EDT
Temp
°C
App
Temp
°C
Dew
Point
°C
Rel
Hum
%
Delta-T
°C
Wind Press
QNH
hPa
Press
MSL
hPa
Rain since
9am
mm
Dir  Spd
km/h
Gust
km/h
Spd
kts
Gust
kts
23/07:00pm 18.5 16.5 11.6 64 3.8 ENE 13 - 7 - 1017.5 1017.5 0.0
23/06:30pm 18.6 16.2 11.4 63 3.9 E 15 - 8 - 1017.3 1017.3 0.0
23/06:00pm 19.0 15.8 11.3 61 4.2 ESE 19 - 10 - 1017.1 1017.1 0.0
23/05:30pm 19.5 16.1 11.3 59 4.5 E 20 - 11 - 1017.0 1017.0 0.0
23/05:00pm 20.0 16.6 10.7 55 5.1 ESE 19 - 10 - 1017.0 1017.0 0.0
23/04:30pm 20.9 17.6 11.0 53 5.4 ESE 19 - 10 - 1016.9 1016.9 0.0
23/04:00pm 21.1 17.4 10.3 50 5.9 ESE 20 - 11 - 1017.1 1017.1 0.0
23/03:30pm 20.7 16.4 9.3 48 6.1 ESE 22 - 12 - 1017.1 1017.1 0.0
23/03:00pm 22.1 18.1 8.9 43 7.0 ESE 20 - 11 - 1017.2 1017.2 0.0
23/02:30pm 22.6 18.9 9.4 43 7.1 ESE 19 - 10 - 1017.3 1017.3 0.0
23/02:00pm 21.5 17.2 7.7 41 7.2 ESE 20 - 11 - 1017.6 1017.6 0.0
23/01:30pm 22.1 18.2 9.3 44 6.9 ESE 20 - 11 - 1017.7 1017.7 0.0
23/01:00pm 20.7 17.5 8.4 45 6.4 SE 15 - 8 - 1017.8 1017.8 0.0
23/12:30pm 21.4 17.9 7.3 40 7.3 SSE 15 - 8 - 1018.1 1018.1 0.0
23/12:00pm 21.7 18.5 8.6 43 6.9 S 15 - 8 - 1018.3 1018.3 0.0
23/11:30am 20.5 17.7 8.5 46 6.3 S 13 - 7 - 1018.5 1018.5 0.0
23/11:00am 20.7 17.0 8.0 44 6.6 S 17 - 9 - 1018.7 1018.7 0.0
23/10:30am 19.4 15.6 9.0 51 5.5 S 19 - 10 - 1018.6 1018.6 0.0
23/10:00am 19.1 15.1 8.1 49 5.7 SSW 19 - 10 - 1018.6 1018.6 0.0
23/09:30am 19.2 16.2 10.5 57 4.7 S 17 - 9 - 1018.3 1018.3 0.0
23/09:00am 18.0 16.7 10.1 60 4.2 W 7 - 4 - 1018.1 1018.1 3.4
23/08:30am 16.2 13.7 9.8 66 3.4 WNW 13 - 7 - 1018.0 1018.0 3.4
23/08:00am 15.5 12.3 10.1 70 2.8 W 17 - 9 - 1017.7 1017.7 3.4
23/07:30am 14.6 12.0 10.6 77 2.1 WNW 15 - 8 - 1017.5 1017.5 3.4
23/07:00am 13.0 10.3 10.2 83 1.4 W 15 - 8 - 1017.3 1017.3 3.4
23/06:30am 12.8 9.7 10.3 85 1.3 W 17 - 9 - 1017.1 1017.1 3.4
23/06:00am 12.9 10.2 10.3 84 1.3 W 15 - 8 - 1016.9 1016.9 3.4
23/05:30am 12.9 10.6 10.3 84 1.3 WNW 13 - 7 - 1016.4 1016.4 3.4
23/05:00am 13.1 10.0 10.3 83 1.5 W 17 - 9 - 1016.0 1016.0 3.4
23/04:30am 13.3 10.3 10.5 83 1.5 W 17 - 9 - 1016.0 1016.0 3.4
23/04:00am 13.5 11.2 10.3 81 1.7 W 13 - 7 - 1015.9 1015.9 3.4
23/03:30am 13.8 11.9 10.6 81 1.7 WNW 11 - 6 - 1016.1 1016.1 3.4
23/03:00am 14.1 11.9 10.9 81 1.7 W 13 - 7 - 1016.2 1016.2 3.4
23/02:30am 14.3 11.8 11.1 81 1.7 W 15 - 8 - 1016.3 1016.3 3.4
23/02:00am 14.5 11.6 11.1 80 1.8 W 17 - 9 - 1016.4 1016.4 3.4
23/01:30am 14.7 11.9 11.3 80 1.8 W 17 - 9 - 1016.2 1016.2 3.4
23/01:00am 15.0 12.3 11.8 81 1.7 W 17 - 9 - 1016.4 1016.4 3.4
23/12:30am 15.3 12.8 12.2 82 1.7 W 17 - 9 - 1016.4 1016.4 3.4
23/12:00am 15.3 13.8 11.9 80 1.8 W 11 - 6 - 1016.3 1016.3 3.4
 
Date/Time
EDT
Temp
°C
App
Temp
°C
Dew
Point
°C
Rel
Hum
%
Delta-T
°C
Wind Press
QNH
hPa
Press
MSL
hPa
Rain since
9am
mm
Dir  Spd
km/h
Gust
km/h
Spd
kts
Gust
kts
22/11:30pm 15.5 14.8 11.9 79 2.0 WNW 7 - 4 - 1016.3 1016.3 3.4
22/11:00pm 15.6 15.4 11.8 78 2.1 ESE 4 - 2 - 1016.3 1016.3 3.4
22/10:30pm 15.8 16.0 11.8 77 2.2 S 2 - 1 - 1016.2 1016.2 3.4
22/10:00pm 15.5 14.7 11.1 75 2.3 SSE 6 - 3 - 1016.0 1016.0 3.4
22/09:30pm 15.6 14.2 10.8 73 2.6 SSE 9 - 5 - 1015.8 1015.8 3.4
22/09:00pm 15.9 14.7 11.7 76 2.3 SSE 9 - 5 - 1015.7 1015.7 3.4
22/08:30pm 16.1 14.4 12.3 78 2.1 SSE 13 - 7 - 1015.7 1015.7 3.2
22/08:00pm 16.2 15.2 12.4 78 2.1 SE 9 - 5 - 1015.0 1014.9 3.0
22/07:30pm 16.0 14.9 11.8 76 2.3 SE 9 - 5 - 1014.6 1014.5 3.0
22/07:00pm 17.0 14.4 12.1 73 2.7 ESE 17 - 9 - 1014.1 1014.0 2.4
22/06:30pm 17.3 14.5 11.3 68 3.3 SE 17 - 9 - 1013.9 1013.8 2.4
22/06:00pm 17.6 15.4 12.1 70 3.0 ESE 15 - 8 - 1013.5 1013.4 2.4
22/05:30pm 17.3 15.5 12.0 71 2.9 ESE 13 - 7 - 1013.2 1013.1 2.4
22/05:00pm 17.0 15.0 12.7 76 2.4 ESE 15 - 8 - 1012.9 1012.8 2.4
22/04:30pm 16.4 13.5 12.9 80 1.9 ESE 20 - 11 - 1012.8 1012.7 2.4
22/04:00pm 16.1 13.8 11.9 76 2.3 SSE 15 - 8 - 1013.1 1013.0 2.2
22/03:30pm 16.6 13.4 11.3 71 2.9 ESE 19 - 10 - 1012.9 1012.8 0.8
22/03:00pm 18.7 15.7 10.8 60 4.3 ESE 17 - 9 - 1013.1 1013.0 0.0
22/02:30pm 18.8 14.6 9.6 55 4.9 ESE 22 - 12 - 1012.5 1012.4 0.0
22/02:00pm 20.7 16.5 9.9 50 5.8 ESE 22 - 12 - 1012.7 1012.6 0.0
22/01:30pm 20.0 15.8 9.9 52 5.4 ESE 22 - 12 - 1013.0 1012.9 0.0
22/01:00pm 19.6 16.0 10.0 54 5.1 E 19 - 10 - 1013.2 1013.1 0.0
22/12:30pm 19.3 15.8 10.3 56 4.8 E 19 - 10 - 1013.4 1013.3 0.0
22/12:00pm 19.7 16.0 9.6 52 5.4 E 19 - 10 - 1013.8 1013.7 0.0
22/11:30am 21.5 19.1 8.7 44 6.8 E 11 - 6 - 1014.1 1014.0 0.0
22/11:00am 20.6 20.2 8.3 45 6.4 CALM 0 - 0 - 1014.6 1014.5 0.0
22/10:30am 19.7 18.2 9.3 51 5.5 WNW 7 - 4 - 1014.9 1014.8 0.0
22/10:00am 18.8 17.5 9.8 56 4.8 W 7 - 4 - 1015.2 1015.2 0.0
22/09:30am 17.4 16.8 10.5 64 3.7 NW 4 - 2 - 1015.3 1015.3 0.0
22/09:00am 16.0 14.8 11.6 75 2.4 WNW 9 - 5 - 1015.3 1015.3 0.2
22/08:30am 15.2 13.3 10.6 74 2.4 WNW 11 - 6 - 1015.4 1015.4 0.2
22/08:00am 15.0 13.5 10.6 75 2.3 WNW 9 - 5 - 1015.3 1015.3 0.2
22/07:30am 14.4 12.4 10.2 76 2.2 WNW 11 - 6 - 1015.2 1015.2 0.2
22/07:00am 14.1 12.9 10.3 78 2.0 WNW 7 - 4 - 1015.1 1015.1 0.2
22/06:30am 13.8 11.9 10.4 80 1.8 W 11 - 6 - 1015.0 1014.9 0.2
22/06:00am 13.8 11.8 10.0 78 2.0 WNW 11 - 6 - 1014.9 1014.8 0.2
22/05:30am 13.8 11.4 10.2 79 1.9 W 13 - 7 - 1014.8 1014.7 0.2
22/05:00am 13.7 12.0 9.9 78 2.0 WNW 9 - 5 - 1014.8 1014.7 0.2
22/04:30am 13.6 11.1 9.6 77 2.1 W 13 - 7 - 1015.1 1015.1 0.2
22/04:00am 13.6 11.4 9.5 76 2.1 WNW 11 - 6 - 1015.2 1015.2 0.2
22/03:30am 13.8 11.3 9.8 77 2.1 WNW 13 - 7 - 1015.4 1015.4 0.2
22/03:00am 13.6 10.7 9.6 77 2.0 W 15 - 8 - 1015.7 1015.7 0.2
22/02:30am 13.4 10.5 9.6 78 1.9 W 15 - 8 - 1016.0 1016.0 0.2
22/02:00am 13.8 11.1 10.4 80 1.8 WNW 15 - 8 - 1016.3 1016.3 0.2
22/01:30am 14.1 11.8 10.3 78 2.0 WNW 13 - 7 - 1016.6 1016.6 0.2
22/01:00am 14.5 12.2 10.5 77 2.1 W 13 - 7 - 1016.9 1016.9 0.2
22/12:30am 14.7 12.6 9.7 72 2.6 WNW 11 - 6 - 1017.2 1017.2 0.2
22/12:00am 15.1 13.2 10.5 74 2.4 W 11 - 6 - 1017.5 1017.5 0.2
 
Date/Time
EDT
Temp
°C
App
Temp
°C
Dew
Point
°C
Rel
Hum
%
Delta-T
°C
Wind Press
QNH
hPa
Press
MSL
hPa
Rain since
9am
mm
Dir  Spd
km/h
Gust
km/h
Spd
kts
Gust
kts
21/11:30pm 15.3 14.2 10.7 74 2.4 WSW 7 - 4 - 1017.7 1017.7 0.2
21/11:00pm 16.0 15.7 10.1 68 3.1 NNW 2 - 1 - 1017.8 1017.8 0.2
21/10:30pm 16.3 15.5 9.5 64 3.5 SSE 4 - 2 - 1018.0 1018.0 0.2
21/10:00pm 16.3 15.1 9.5 64 3.5 SE 6 - 3 - 1018.1 1018.1 0.2
21/09:30pm 16.4 15.6 9.6 64 3.5 ESE 4 - 2 - 1018.3 1018.3 0.2
21/09:00pm 16.5 15.1 9.4 63 3.7 ESE 7 - 4 - 1018.2 1018.2 0.2
21/08:30pm 16.5 14.6 9.2 62 3.8 ESE 9 - 5 - 1018.1 1018.1 0.2
21/08:00pm 16.1 14.2 9.1 63 3.6 ESE 9 - 5 - 1017.9 1017.9 0.2
21/07:30pm 16.6 14.1 9.8 64 3.6 ESE 13 - 7 - 1017.9 1017.9 0.2
21/07:00pm 17.0 13.6 10.4 65 3.5 ESE 19 - 10 - 1018.0 1018.0 0.2
21/06:30pm 16.6 13.6 9.1 61 3.9 SE 15 - 8 - 1018.2 1018.2 0.2
21/06:00pm 17.3 13.4 8.7 57 4.4 SSE 19 - 10 - 1018.1 1018.1 0.2
21/05:30pm 17.4 13.4 8.3 55 4.7 SE 19 - 10 - 1018.3 1018.3 0.2
21/05:00pm 18.4 14.3 8.7 53 5.0 SSE 20 - 11 - 1018.3 1018.3 0.2
21/04:30pm 18.9 14.8 8.8 52 5.3 SSE 20 - 11 - 1018.4 1018.4 0.2
21/04:00pm 18.9 14.8 8.6 51 5.3 S 20 - 11 - 1018.6 1018.6 0.2
21/03:30pm 19.2 14.7 8.5 50 5.6 S 22 - 12 - 1019.0 1019.0 0.2
21/03:00pm 18.9 13.4 9.1 53 5.1 SSE 28 - 15 - 1019.3 1019.3 0.2
21/02:30pm 18.9 14.6 9.4 54 5.0 S 22 - 12 - 1019.6 1019.6 0.2
21/02:00pm 18.1 13.0 7.8 51 5.2 S 24 - 13 - 1020.2 1020.1 0.2
21/01:30pm 19.7 14.3 9.6 52 5.4 S 28 - 15 - 1020.5 1020.4 0.2
21/01:00pm 18.8 13.4 9.6 55 4.9 S 28 - 15 - 1020.7 1020.6 0.2
21/12:30pm 17.7 11.5 7.7 52 5.1 S 30 - 16 - 1020.9 1020.8 0.2
21/12:00pm 17.6 11.0 7.9 53 4.9 S 32 - 17 - 1021.3 1021.2 0.2
21/11:30am 18.8 12.7 8.2 50 5.5 S 30 - 16 - 1021.7 1021.6 0.2
21/11:00am 18.9 13.6 8.3 50 5.5 SSW 26 - 14 - 1021.9 1021.8 0.2
21/10:30am 18.9 13.7 8.8 52 5.3 S 26 - 14 - 1022.3 1022.2 0.2
21/10:00am 18.6 13.7 8.3 51 5.3 S 24 - 13 - 1022.0 1021.9 0.0
21/09:30am 17.7 12.9 7.4 51 5.2 S 22 - 12 - 1022.1 1022.0 0.0
21/09:00am 16.8 11.5 6.9 52 4.9 SSW 24 - 13 - 1022.0 1021.9 16.4
21/08:30am 15.5 12.2 6.5 55 4.4 SW 13 - 7 - 1022.3 1022.2 16.4
21/08:00am 14.4 9.8 5.7 56 4.1 W 19 - 10 - 1022.4 1022.3 16.4
21/07:30am 13.6 9.9 6.2 61 3.5 WSW 15 - 8 - 1022.3 1022.2 16.4
21/07:00am 13.3 8.9 6.6 64 3.2 W 19 - 10 - 1022.1 1022.0 16.4
21/06:30am 13.3 9.6 6.4 63 3.3 WSW 15 - 8 - 1022.0 1021.9 16.4
21/06:00am 14.0 10.0 6.6 61 3.6 WSW 17 - 9 - 1022.0 1021.9 16.4
21/05:30am 14.4 10.4 6.5 59 3.8 SW 17 - 9 - 1021.7 1021.6 16.4
21/05:00am 14.9 10.7 5.7 54 4.4 SSW 17 - 9 - 1021.7 1021.6 16.4
21/04:30am 15.3 10.7 5.5 52 4.7 S 19 - 10 - 1022.1 1022.0 16.4
21/04:00am 15.4 11.3 6.2 54 4.4 S 17 - 9 - 1022.3 1022.2 16.4
21/03:30am 15.5 10.8 6.2 54 4.5 S 20 - 11 - 1022.5 1022.4 16.4
21/03:00am 15.6 11.0 6.6 55 4.4 S 20 - 11 - 1022.8 1022.7 16.4
21/02:30am 15.6 11.3 6.9 56 4.3 S 19 - 10 - 1022.8 1022.7 16.4
21/02:00am 15.6 11.1 6.1 53 4.6 S 19 - 10 - 1023.0 1022.9 16.4
21/01:30am 15.8 11.1 7.8 59 4.0 S 22 - 12 - 1023.1 1023.0 16.4
21/01:00am 16.0 11.2 4.7 47 5.3 S 19 - 10 - 1023.3 1023.2 16.4
21/12:30am 16.1 12.0 7.8 58 4.2 SSE 19 - 10 - 1023.7 1023.6 16.4
21/12:00am 16.1 12.0 8.6 61 3.8 S 20 - 11 - 1023.9 1023.8 16.4
 
Date/Time
EDT
Temp
°C
App
Temp
°C
Dew
Point
°C
Rel
Hum
%
Delta-T
°C
Wind Press
QNH
hPa
Press
MSL
hPa
Rain since
9am
mm
Dir  Spd
km/h
Gust
km/h
Spd
kts
Gust
kts
20/11:30pm 16.1 12.2 8.8 62 3.7 S 19 - 10 - 1023.9 1023.8 16.4
20/11:00pm 16.2 12.1 8.7 61 3.8 S 20 - 11 - 1024.0 1023.9 16.4
20/10:30pm 16.2 12.4 8.9 62 3.8 SSE 19 - 10 - 1024.0 1023.9 16.4
20/10:00pm 16.1 12.2 9.3 64 3.5 SSE 20 - 11 - 1023.8 1023.7 16.4
20/09:30pm 15.9 11.9 9.1 64 3.5 SSE 20 - 11 - 1023.8 1023.7 16.4
20/09:00pm 15.8 12.0 9.7 67 3.2 SSE 20 - 11 - 1023.6 1023.5 16.4
20/08:30pm 15.2 11.8 10.4 73 2.5 S 19 - 10 - 1023.6 1023.5 16.4
20/08:00pm 14.9 11.3 10.7 76 2.2 S 20 - 11 - 1023.0 1022.9 16.4
20/07:30pm 14.9 11.5 12.6 86 1.3 S 22 - 12 - 1022.6 1022.5 16.4

Latest Capital City Observations: Canberra | Sydney | Melbourne | Brisbane | Adelaide | Perth | Hobart | Darwin

Other Formats:

Comma delimited format used in spreadsheet applications
http://www.bom.gov.au/fwo/IDN60901/IDN60901.94768.axf

JavaScript Object Notation format (JSON) in row-major order
http://www.bom.gov.au/fwo/IDN60901/IDN60901.94768.json